Airport Information

KAST - Astoria Regional Airport

KAST 160755Z AUTO 08006KT 10SM OVC100 04/01 A2970 RMK AO2 SLP058 T00440006 400890033


  • General Information

  • Coordinates: N 46°9'28"/ W 123°52'43"
  • Location: N/A
  • Surveyed Elevation: 15 MSL

Operations

Flow Name Active Runways Conditions

Green background denotes normal operations.


Common Frequencies

Callsign Frequency Position Name

More at the Document Center


Charts